Terminal Aerodrome Forecast
Issued by NWS

Home | Current Version | Previous Version | Graphics & Text | Print | Product List | Glossary On
Versions: 1 2 3 4 5 6 7 8 9 10 11 12 13 14 15 16 17 18 19
000
FTUS41 KCLE 302109 AAC
TAFFDY
TAF AMD
KFDY 302109Z 3021/3118 22008KT P6SM VCSH BKN060
      TEMPO 3021/3024 24010G20KT 3SM TSRA BKN035CB OVC060
     FM310000 23003KT P6SM SKC
     FM310800 23003KT 4SM BR SKC
      TEMPO 3110/3112 2SM BR
     FM311400 23006KT P6SM SCT030
     FM311700 23008KT P6SM BKN050=

USA.gov is the U.S. government's official web portal to all federal, state and local government web resources and services.